Time;durP1;ratioP1;P1;durP2;ratioP2;P2;SDS_P1;SDS_P2;PMS_P1;PMS_P2;Temp;Humidity;BMP_temperature;BMP_pressure;BME280_temperature;BME280_humidity;BME280_pressure;Samples;Min_cycle;Max_cycle;Signal;HPM_P1;HPM_P2
2023/09/06 00:00:48;;;;;;;20.98;2.67;;;;;;;;;;5092295;28;20031;-30
2023/09/06 00:03:16;;;;;;;24.17;3.00;;;;;;;;;;5088010;28;20032;-32
2023/09/06 00:05:43;;;;;;;33.63;3.15;;;;;;;;;;5089114;28;20040;-30
2023/09/06 00:08:12;;;;;;;21.27;3.63;;;;;;;;;;5091863;28;20385;-31
2023/09/06 00:10:40;;;;;;;22.73;3.20;;;;;;;;;;5092723;28;20058;-34
2023/09/06 00:13:07;;;;;;;26.10;3.58;;;;;;;;;;5092451;28;20115;-32
2023/09/06 00:15:35;;;;;;;18.48;3.15;;;;;;;;;;5092665;28;20028;-32
2023/09/06 00:18:03;;;;;;;27.00;3.85;;;;;;;;;;5092711;28;20048;-30
2023/09/06 00:20:30;;;;;;;24.13;3.25;;;;;;;;;;5091894;28;20398;-29
2023/09/06 00:22:58;;;;;;;23.30;3.45;;;;;;;;;;5091875;28;20027;-31
2023/09/06 00:25:30;;;;;;;26.88;3.63;;;;;;;;;;5092427;28;20090;-31
2023/09/06 00:27:59;;;;;;;23.67;3.80;;;;;;;;;;5092106;28;20031;-32
2023/09/06 00:30:28;;;;;;;34.38;5.47;;;;;;;;;;5092408;28;20032;-30
2023/09/06 00:32:55;;;;;;;42.00;7.10;;;;;;;;;;5092301;28;20509;-32
2023/09/06 00:35:26;;;;;;;49.92;8.00;;;;;;;;;;5073523;28;20432;-31
2023/09/06 00:37:54;;;;;;;74.07;17.20;;;;;;;;;;5091472;28;20401;-32
2023/09/06 00:40:22;;;;;;;119.75;24.67;;;;;;;;;;5091997;28;20028;-33
2023/09/06 00:42:59;;;;;;;163.77;38.65;;;;;;;;;;5092106;28;20028;-31
2023/09/06 00:45:29;;;;;;;84.15;24.20;;;;;;;;;;5091976;28;20016;-33
2023/09/06 00:47:57;;;;;;;122.82;32.97;;;;;;;;;;5091843;28;20537;-31
2023/09/06 00:50:25;;;;;;;133.73;32.50;;;;;;;;;;5091714;28;20020;-32
2023/09/06 00:52:53;;;;;;;118.82;31.30;;;;;;;;;;5091913;28;20070;-34
2023/09/06 00:55:20;;;;;;;129.05;34.92;;;;;;;;;;5092052;28;20028;-32
2023/09/06 00:57:48;;;;;;;108.90;32.10;;;;;;;;;;5091918;28;20073;-33
2023/09/06 01:00:17;;;;;;;106.75;30.13;;;;;;;;;;5092112;28;20031;-32
2023/09/06 01:02:46;;;;;;;151.43;36.42;;;;;;;;;;5091724;28;20032;-34
2023/09/06 01:05:13;;;;;;;132.27;33.85;;;;;;;;;;5091657;28;20153;-31
2023/09/06 01:07:41;;;;;;;129.15;35.35;;;;;;;;;;5091671;28;20039;-30
2023/09/06 01:10:08;;;;;;;124.28;34.60;;;;;;;;;;5090943;28;20020;-35
2023/09/06 01:12:35;;;;;;;117.88;33.38;;;;;;;;;;5090716;28;20019;-31
2023/09/06 01:15:06;;;;;;;112.60;32.65;;;;;;;;;;5091387;28;20035;-30
2023/09/06 01:17:41;;;;;;;128.73;34.33;;;;;;;;;;5091155;28;20032;-30
2023/09/06 01:20:17;;;;;;;121.43;33.25;;;;;;;;;;5091310;28;20051;-30
2023/09/06 01:23:07;;;;;;;108.15;32.03;;;;;;;;;;5072717;28;20055;-31
2023/09/06 01:25:34;;;;;;;108.20;30.48;;;;;;;;;;5081002;28;20036;-31
2023/09/06 01:28:01;;;;;;;102.50;29.92;;;;;;;;;;5091249;28;20509;-31
2023/09/06 01:30:31;;;;;;;109.60;28.77;;;;;;;;;;5073106;28;20066;-30
2023/09/06 01:32:58;;;;;;;95.45;27.50;;;;;;;;;;5090750;28;20070;-31
2023/09/06 01:35:25;;;;;;;102.47;28.25;;;;;;;;;;5090385;28;20024;-30
2023/09/06 01:37:52;;;;;;;89.60;26.58;;;;;;;;;;5090855;28;20043;-31
2023/09/06 01:40:20;;;;;;;90.65;26.88;;;;;;;;;;5091389;28;20036;-30
2023/09/06 01:42:47;;;;;;;88.68;26.58;;;;;;;;;;5090841;28;20543;-31
2023/09/06 01:45:17;;;;;;;79.57;24.60;;;;;;;;;;5091192;28;20380;-31
2023/09/06 01:47:48;;;;;;;74.05;23.30;;;;;;;;;;5090619;28;20040;-31
2023/09/06 01:50:19;;;;;;;82.70;23.83;;;;;;;;;;5091171;28;20071;-30
2023/09/06 01:52:47;;;;;;;67.83;21.40;;;;;;;;;;5078674;28;20064;-30
2023/09/06 01:55:14;;;;;;;67.15;19.55;;;;;;;;;;5091242;28;20030;-31
2023/09/06 01:57:41;;;;;;;62.00;18.70;;;;;;;;;;5091156;28;20082;-32
2023/09/06 02:00:41;;;;;;;63.78;19.50;;;;;;;;;;5089481;28;20047;-31
2023/09/06 02:03:02;;;;;;;55.83;18.48;;;;;;;;;;5085485;28;20055;-31
2023/09/06 02:05:31;;;;;;;56.20;17.42;;;;;;;;;;5094763;28;20028;-32
2023/09/06 02:07:59;;;;;;;53.30;16.67;;;;;;;;;;5094862;28;20031;-31
2023/09/06 02:10:27;;;;;;;47.65;16.35;;;;;;;;;;5092107;28;20497;-30
2023/09/06 02:12:54;;;;;;;46.35;15.85;;;;;;;;;;5076217;28;20036;-31
2023/09/06 02:15:22;;;;;;;51.30;16.33;;;;;;;;;;5094733;28;20028;-30
2023/09/06 02:17:50;;;;;;;50.40;15.73;;;;;;;;;;5094498;28;20040;-32
2023/09/06 02:20:17;;;;;;;42.80;14.45;;;;;;;;;;5094050;28;20538;-30
2023/09/06 02:22:46;;;;;;;48.88;14.80;;;;;;;;;;5095026;28;20043;-30
2023/09/06 02:25:14;;;;;;;44.50;15.85;;;;;;;;;;5095022;28;20115;-30
2023/09/06 02:27:41;;;;;;;42.50;13.18;;;;;;;;;;5095169;28;20036;-30
2023/09/06 02:30:09;;;;;;;41.17;13.35;;;;;;;;;;5095119;28;20062;-31
2023/09/06 02:32:36;;;;;;;40.97;13.68;;;;;;;;;;5095092;28;20081;-32
2023/09/06 02:35:03;;;;;;;35.47;11.50;;;;;;;;;;5095000;28;20077;-31
2023/09/06 02:37:30;;;;;;;36.08;12.35;;;;;;;;;;5094908;28;20146;-31
2023/09/06 02:39:57;;;;;;;30.92;11.40;;;;;;;;;;5095010;28;20039;-31
2023/09/06 02:42:24;;;;;;;28.95;10.85;;;;;;;;;;5094854;28;20498;-30
2023/09/06 02:44:51;;;;;;;32.92;10.38;;;;;;;;;;5076546;28;20040;-30
2023/09/06 02:47:25;;;;;;;29.92;10.52;;;;;;;;;;5094642;28;20054;-30
2023/09/06 02:49:55;;;;;;;30.52;9.90;;;;;;;;;;5094326;28;20039;-32
2023/09/06 02:52:30;;;;;;;29.98;9.70;;;;;;;;;;5094387;28;20024;-31
2023/09/06 02:54:57;;;;;;;26.73;9.68;;;;;;;;;;5094558;28;20081;-30
2023/09/06 02:57:30;;;;;;;26.08;9.38;;;;;;;;;;5094711;28;20027;-30
2023/09/06 02:59:57;;;;;;;25.80;9.25;;;;;;;;;;5094426;28;20028;-30
2023/09/06 03:02:24;;;;;;;22.75;8.68;;;;;;;;;;5094355;28;20028;-30
2023/09/06 03:05:03;;;;;;;24.83;8.55;;;;;;;;;;5094470;28;20462;-30
2023/09/06 03:07:34;;;;;;;23.70;8.07;;;;;;;;;;5094449;28;20048;-30
2023/09/06 03:10:01;;;;;;;23.98;7.75;;;;;;;;;;5094429;28;20031;-33
2023/09/06 03:12:29;;;;;;;18.08;6.95;;;;;;;;;;5092705;28;20028;-31
2023/09/06 03:14:56;;;;;;;20.15;7.45;;;;;;;;;;5094187;28;20032;-30
2023/09/06 03:17:24;;;;;;;17.67;7.07;;;;;;;;;;5094228;28;20115;-30
2023/09/06 03:19:53;;;;;;;18.20;7.07;;;;;;;;;;5094058;28;20490;-31
2023/09/06 03:22:25;;;;;;;17.35;6.80;;;;;;;;;;5094039;28;20024;-30
2023/09/06 03:24:55;;;;;;;19.40;6.82;;;;;;;;;;5093992;28;20436;-31
2023/09/06 03:27:22;;;;;;;18.67;6.25;;;;;;;;;;5094141;28;20486;-32
2023/09/06 03:29:51;;;;;;;14.45;5.43;;;;;;;;;;5094077;28;20024;-30
2023/09/06 03:32:18;;;;;;;16.30;5.50;;;;;;;;;;5093774;28;20032;-31
2023/09/06 03:34:45;;;;;;;31.27;5.95;;;;;;;;;;5093869;28;20024;-31
2023/09/06 03:37:18;;;;;;;15.90;5.07;;;;;;;;;;5093889;28;20115;-32
2023/09/06 03:39:47;;;;;;;16.08;4.95;;;;;;;;;;5093711;28;20032;-32
2023/09/06 03:42:15;;;;;;;12.63;5.03;;;;;;;;;;5093501;28;20120;-30
2023/09/06 03:44:46;;;;;;;13.57;4.75;;;;;;;;;;5093677;28;20101;-30
2023/09/06 03:47:13;;;;;;;15.13;4.70;;;;;;;;;;5093246;28;20048;-31
2023/09/06 03:49:40;;;;;;;10.65;4.30;;;;;;;;;;5093687;28;20020;-31
2023/09/06 03:52:08;;;;;;;12.38;4.40;;;;;;;;;;5093563;28;20485;-30
2023/09/06 03:54:35;;;;;;;12.40;4.45;;;;;;;;;;5093554;28;20436;-31
2023/09/06 03:57:03;;;;;;;10.93;3.88;;;;;;;;;;5093491;28;20028;-31
2023/09/06 03:59:31;;;;;;;16.65;4.68;;;;;;;;;;5093429;28;20668;-30
2023/09/06 04:01:58;;;;;;;14.65;4.05;;;;;;;;;;5093224;28;20028;-30
2023/09/06 04:04:25;;;;;;;10.63;3.80;;;;;;;;;;5093453;28;20074;-30
2023/09/06 04:06:53;;;;;;;11.73;3.80;;;;;;;;;;5093186;28;20036;-30
2023/09/06 04:09:27;;;;;;;8.88;3.50;;;;;;;;;;5093110;28;20036;-31
2023/09/06 04:11:54;;;;;;;10.77;3.38;;;;;;;;;;5092995;28;20131;-30
2023/09/06 04:14:24;;;;;;;14.43;3.47;;;;;;;;;;5093201;28;20028;-31
2023/09/06 04:16:51;;;;;;;10.00;3.50;;;;;;;;;;5074782;28;20455;-30
2023/09/06 04:19:18;;;;;;;8.30;3.00;;;;;;;;;;5093073;28;20020;-32
2023/09/06 04:21:47;;;;;;;6.72;3.00;;;;;;;;;;5092894;28;20527;-30
2023/09/06 04:24:15;;;;;;;12.55;2.97;;;;;;;;;;5092586;28;20133;-32
2023/09/06 04:26:42;;;;;;;8.50;3.03;;;;;;;;;;5092848;28;20086;-31
2023/09/06 04:29:09;;;;;;;7.18;2.50;;;;;;;;;;5092873;28;20032;-33
2023/09/06 04:31:36;;;;;;;7.25;2.80;;;;;;;;;;5092778;28;20039;-30
2023/09/06 04:34:04;;;;;;;6.53;2.42;;;;;;;;;;5092520;28;20506;-32
2023/09/06 04:36:31;;;;;;;6.97;2.83;;;;;;;;;;5092613;28;20473;-32
2023/09/06 04:38:58;;;;;;;6.05;2.72;;;;;;;;;;5074336;28;20493;-30
2023/09/06 04:41:25;;;;;;;6.13;2.55;;;;;;;;;;5092636;28;20024;-33
2023/09/06 04:43:52;;;;;;;5.43;2.58;;;;;;;;;;5092517;28;20016;-30
2023/09/06 04:46:19;;;;;;;20.92;3.53;;;;;;;;;;5092302;28;20143;-31
2023/09/06 04:48:46;;;;;;;7.05;2.20;;;;;;;;;;5092425;28;20020;-30
2023/09/06 04:51:14;;;;;;;7.90;2.35;;;;;;;;;;5092490;28;20031;-31
2023/09/06 04:53:41;;;;;;;10.57;2.85;;;;;;;;;;5092154;28;20039;-30
2023/09/06 04:56:08;;;;;;;5.25;2.47;;;;;;;;;;5092350;28;20040;-30
2023/09/06 04:58:35;;;;;;;6.53;2.35;;;;;;;;;;5092221;28;20405;-30
2023/09/06 05:01:07;;;;;;;5.35;2.10;;;;;;;;;;5092262;28;20074;-33
2023/09/06 05:03:35;;;;;;;6.97;2.42;;;;;;;;;;5092200;28;20032;-30
2023/09/06 05:06:02;;;;;;;4.50;1.75;;;;;;;;;;5092011;28;20031;-30
2023/09/06 05:08:30;;;;;;;14.13;2.13;;;;;;;;;;5092084;28;20098;-30
2023/09/06 05:10:57;;;;;;;6.53;2.42;;;;;;;;;;5091987;28;20663;-31
2023/09/06 05:13:24;;;;;;;7.03;1.83;;;;;;;;;;5092154;28;20421;-30
2023/09/06 05:15:51;;;;;;;4.75;1.90;;;;;;;;;;5091999;28;20067;-30
2023/09/06 05:18:18;;;;;;;5.25;1.80;;;;;;;;;;5091918;28;20024;-31
2023/09/06 05:20:45;;;;;;;6.70;1.98;;;;;;;;;;5092049;28;20417;-31
2023/09/06 05:23:13;;;;;;;3.05;1.67;;;;;;;;;;5091882;28;20551;-30
2023/09/06 05:25:41;;;;;;;5.40;2.03;;;;;;;;;;5091867;28;20040;-30
2023/09/06 05:28:09;;;;;;;3.25;1.60;;;;;;;;;;5091924;28;20043;-30
2023/09/06 05:30:40;;;;;;;4.55;1.75;;;;;;;;;;5091774;28;20051;-30
2023/09/06 05:33:07;;;;;;;4.85;1.60;;;;;;;;;;5073561;28;20509;-30
2023/09/06 05:35:34;;;;;;;4.18;1.70;;;;;;;;;;5091061;28;20020;-30
2023/09/06 05:38:05;;;;;;;5.32;1.77;;;;;;;;;;5091831;28;20034;-31
2023/09/06 05:40:33;;;;;;;3.45;1.55;;;;;;;;;;5091749;28;20060;-32
2023/09/06 05:43:00;;;;;;;3.60;1.65;;;;;;;;;;5091541;28;20036;-30
2023/09/06 05:45:27;;;;;;;6.45;1.70;;;;;;;;;;5091710;28;20020;-32
2023/09/06 05:47:54;;;;;;;3.42;1.48;;;;;;;;;;5091552;28;20406;-31
2023/09/06 05:50:21;;;;;;;5.13;1.70;;;;;;;;;;5091664;28;20043;-29
2023/09/06 05:52:49;;;;;;;4.28;1.40;;;;;;;;;;5091595;28;20052;-30
2023/09/06 05:55:16;;;;;;;3.97;1.45;;;;;;;;;;5091511;28;20020;-32
2023/09/06 05:57:43;;;;;;;5.25;1.42;;;;;;;;;;5091438;28;20058;-30
2023/09/06 06:00:15;;;;;;;3.47;1.42;;;;;;;;;;5091356;28;20521;-31
2023/09/06 06:02:42;;;;;;;;;;;;;;;;;;5089985;28;20477;-30
2023/09/06 06:05:10;;;;;;;2.90;1.52;;;;;;;;;;5091457;28;19965;-30
2023/09/06 06:07:37;;;;;;;3.72;1.42;;;;;;;;;;5091342;28;20067;-31
2023/09/06 06:10:04;;;;;;;4.07;1.73;;;;;;;;;;5091327;28;20028;-30
2023/09/06 06:12:32;;;;;;;8.98;1.23;;;;;;;;;;5091282;28;20045;-30
2023/09/06 06:15:00;;;;;;;4.65;1.38;;;;;;;;;;5091387;28;20036;-30
2023/09/06 06:17:27;;;;;;;3.20;1.27;;;;;;;;;;5091352;28;20394;-30
2023/09/06 06:19:54;;;;;;;3.30;1.38;;;;;;;;;;5091491;28;20063;-30
2023/09/06 06:22:21;;;;;;;2.03;0.98;;;;;;;;;;5091056;28;20090;-29
2023/09/06 06:24:50;;;;;;;1.95;1.20;;;;;;;;;;5091365;28;20085;-30
2023/09/06 06:27:17;;;;;;;4.18;1.38;;;;;;;;;;5091117;28;20040;-28
2023/09/06 06:29:44;;;;;;;3.70;1.50;;;;;;;;;;5091102;28;20036;-28
2023/09/06 06:32:11;;;;;;;2.65;1.25;;;;;;;;;;5090906;28;20032;-29
2023/09/06 06:34:39;;;;;;;5.88;1.40;;;;;;;;;;5072852;28;20027;-29
2023/09/06 06:37:06;;;;;;;4.60;1.40;;;;;;;;;;5091413;28;20401;-29
2023/09/06 06:39:33;;;;;;;4.45;1.00;;;;;;;;;;5091106;28;20103;-30
2023/09/06 06:42:00;;;;;;;2.58;0.90;;;;;;;;;;5091111;28;20028;-28
2023/09/06 06:44:27;;;;;;;6.90;1.25;;;;;;;;;;5091177;28;20048;-28
2023/09/06 06:46:55;;;;;;;3.42;1.10;;;;;;;;;;5093118;28;20098;-29
2023/09/06 06:49:22;;;;;;;9.68;1.42;;;;;;;;;;5094280;28;20490;-29
2023/09/06 06:51:48;;;;;;;2.15;1.10;;;;;;;;;;5094753;28;20085;-29
2023/09/06 06:54:15;;;;;;;2.95;1.23;;;;;;;;;;5094793;28;20024;-29
2023/09/06 06:56:43;;;;;;;6.38;1.30;;;;;;;;;;5094765;28;20054;-29
2023/09/06 06:59:12;;;;;;;2.42;0.90;;;;;;;;;;5094593;28;20102;-33
2023/09/06 07:01:39;;;;;;;3.80;1.10;;;;;;;;;;5094577;28;20686;-28
2023/09/06 07:04:06;;;;;;;3.63;1.02;;;;;;;;;;5094623;28;20051;-30
2023/09/06 07:06:35;;;;;;;4.60;1.10;;;;;;;;;;5094464;28;20032;-29
2023/09/06 07:09:03;;;;;;;3.05;1.20;;;;;;;;;;5094661;28;20405;-28
2023/09/06 07:11:35;;;;;;;2.65;1.00;;;;;;;;;;5094358;28;20028;-29
2023/09/06 07:14:02;;;;;;;2.33;1.10;;;;;;;;;;5094411;28;20567;-30
2023/09/06 07:16:31;;;;;;;2.08;1.10;;;;;;;;;;5094380;28;20080;-28
2023/09/06 07:18:58;;;;;;;2.85;1.08;;;;;;;;;;5094258;28;20036;-28
2023/09/06 07:21:26;;;;;;;3.08;1.17;;;;;;;;;;5094026;28;20032;-30
2023/09/06 07:23:52;;;;;;;2.72;0.98;;;;;;;;;;5094177;28;20024;-28
2023/09/06 07:26:19;;;;;;;3.17;1.00;;;;;;;;;;5094192;28;20028;-28
2023/09/06 07:28:47;;;;;;;2.95;0.95;;;;;;;;;;5094107;28;20052;-29
2023/09/06 07:31:15;;;;;;;9.18;1.13;;;;;;;;;;5094056;28;20040;-28
2023/09/06 07:33:42;;;;;;;6.38;1.20;;;;;;;;;;5093999;28;20024;-29
2023/09/06 07:36:11;;;;;;;7.78;1.00;;;;;;;;;;5094021;28;20128;-29
2023/09/06 07:38:37;;;;;;;3.55;1.10;;;;;;;;;;5093867;28;20402;-29
2023/09/06 07:41:05;;;;;;;2.80;1.00;;;;;;;;;;5093871;28;20038;-28
2023/09/06 07:43:33;;;;;;;7.28;1.70;;;;;;;;;;5093755;28;20416;-30
2023/09/06 07:46:00;;;;;;;3.90;1.17;;;;;;;;;;5093456;28;20485;-36
2023/09/06 07:48:31;;;;;;;2.35;1.00;;;;;;;;;;5093731;28;20032;-36
2023/09/06 07:50:59;;;;;;;4.90;1.25;;;;;;;;;;5093738;28;20056;-35
2023/09/06 07:53:26;;;;;;;3.70;1.23;;;;;;;;;;5093564;28;20028;-36
2023/09/06 07:55:55;;;;;;;6.18;2.10;;;;;;;;;;5093593;28;20032;-31
2023/09/06 07:58:22;;;;;;;5.35;1.05;;;;;;;;;;5092691;28;20047;-33
2023/09/06 08:00:49;;;;;;;8.20;1.33;;;;;;;;;;5093511;28;20028;-35
2023/09/06 08:03:16;;;;;;;5.35;1.50;;;;;;;;;;5093385;28;20024;-32
2023/09/06 08:05:43;;;;;;;4.20;1.10;;;;;;;;;;5093309;28;20437;-29
2023/09/06 08:08:11;;;;;;;2.60;1.17;;;;;;;;;;5093278;28;20028;-37
2023/09/06 08:10:39;;;;;;;5.03;1.08;;;;;;;;;;5092839;28;20035;-30
2023/09/06 08:13:07;;;;;;;2.67;1.33;;;;;;;;;;5093031;28;20103;-34
2023/09/06 08:15:35;;;;;;;3.83;1.75;;;;;;;;;;5093228;28;20032;-33
2023/09/06 08:18:03;;;;;;;3.38;1.10;;;;;;;;;;5093021;28;20497;-31
2023/09/06 08:20:30;;;;;;;4.90;1.50;;;;;;;;;;5093046;28;20114;-30
2023/09/06 08:22:57;;;;;;;4.82;1.15;;;;;;;;;;5093008;28;20478;-38
2023/09/06 08:25:24;;;;;;;2.42;1.10;;;;;;;;;;5092968;28;20035;-32
2023/09/06 08:27:51;;;;;;;2.70;1.08;;;;;;;;;;5092960;28;20119;-34
2023/09/06 08:30:19;;;;;;;5.05;1.33;;;;;;;;;;5092947;28;20024;-36
2023/09/06 08:32:51;;;;;;;4.07;1.20;;;;;;;;;;5092715;28;20051;-34
2023/09/06 08:35:18;;;;;;;3.13;1.05;;;;;;;;;;5092663;28;20040;-31
2023/09/06 08:37:47;;;;;;;4.50;1.40;;;;;;;;;;5092799;28;20103;-32
2023/09/06 08:40:20;;;;;;;5.72;1.20;;;;;;;;;;5092618;28;20028;-29
2023/09/06 08:42:46;;;;;;;;;;;;;;;;;;5092976;28;20020;-28
2023/09/06 08:45:14;;;;;;;5.85;1.30;;;;;;;;;;5092566;28;19908;-30
2023/09/06 08:47:42;;;;;;;3.88;1.35;;;;;;;;;;5074353;28;20048;-29
2023/09/06 08:50:09;;;;;;;4.95;1.50;;;;;;;;;;5092607;28;20024;-29
2023/09/06 08:52:40;;;;;;;3.67;1.10;;;;;;;;;;5092241;28;20098;-29
2023/09/06 08:55:11;;;;;;;3.40;1.15;;;;;;;;;;5092374;28;20127;-28
2023/09/06 08:57:38;;;;;;;2.03;0.95;;;;;;;;;;5092304;28;20958;-29
2023/09/06 09:00:09;;;;;;;4.22;1.23;;;;;;;;;;5092336;28;20117;-29
2023/09/06 09:02:37;;;;;;;2.63;1.13;;;;;;;;;;5092187;28;20471;-29
2023/09/06 09:05:05;;;;;;;3.03;1.20;;;;;;;;;;5092209;28;20030;-29
2023/09/06 09:07:32;;;;;;;3.38;1.10;;;;;;;;;;5092090;28;20454;-28
2023/09/06 09:10:10;;;;;;;7.03;1.83;;;;;;;;;;5090228;28;20039;-29
2023/09/06 09:12:38;;;;;;;7.25;1.10;;;;;;;;;;5071748;28;20562;-29
2023/09/06 09:15:07;;;;;;;4.30;0.93;;;;;;;;;;5071957;28;20099;-28
2023/09/06 09:17:38;;;;;;;2.95;1.10;;;;;;;;;;5071863;28;20044;-28
2023/09/06 09:20:05;;;;;;;3.78;1.25;;;;;;;;;;5071919;28;20029;-29
2023/09/06 09:22:37;;;;;;;6.43;1.17;;;;;;;;;;5071586;28;20078;-29
2023/09/06 09:25:14;;;;;;;3.47;1.05;;;;;;;;;;5071515;28;20064;-31
2023/09/06 09:27:56;;;;;;;5.15;1.10;;;;;;;;;;5071517;28;20055;-30
2023/09/06 09:30:24;;;;;;;6.50;1.47;;;;;;;;;;5071652;28;20041;-29
2023/09/06 09:32:57;;;;;;;3.47;1.20;;;;;;;;;;5071417;28;20028;-30
2023/09/06 09:35:26;;;;;;;3.47;1.20;;;;;;;;;;5072045;28;20032;-29
2023/09/06 09:37:53;;;;;;;5.85;1.10;;;;;;;;;;5091097;28;20027;-28
2023/09/06 09:40:22;;;;;;;3.53;1.20;;;;;;;;;;5085990;28;20035;-28
2023/09/06 09:42:55;;;;;;;3.47;1.25;;;;;;;;;;5084946;28;20036;-28
2023/09/06 09:45:28;;;;;;;6.15;1.48;;;;;;;;;;5091566;28;20025;-29
2023/09/06 09:47:59;;;;;;;26.65;2.00;;;;;;;;;;5090409;28;20060;-28
2023/09/06 09:50:29;;;;;;;5.75;1.20;;;;;;;;;;5091349;28;20031;-28
2023/09/06 09:52:57;;;;;;;9.48;1.63;;;;;;;;;;5091166;28;20105;-29
2023/09/06 09:55:31;;;;;;;11.50;1.60;;;;;;;;;;5091557;28;20029;-31
2023/09/06 09:58:05;;;;;;;5.30;1.40;;;;;;;;;;5091470;28;20082;-29
2023/09/06 10:00:33;;;;;;;6.90;1.30;;;;;;;;;;5091408;28;20035;-31
2023/09/06 10:03:01;;;;;;;6.65;1.20;;;;;;;;;;5073308;28;20028;-32
2023/09/06 10:05:29;;;;;;;8.90;1.58;;;;;;;;;;5091410;28;20107;-28
2023/09/06 10:07:57;;;;;;;6.45;1.40;;;;;;;;;;5091322;28;20127;-29
2023/09/06 10:10:27;;;;;;;5.43;1.63;;;;;;;;;;5073381;28;20028;-28
2023/09/06 10:12:55;;;;;;;5.32;1.30;;;;;;;;;;5091000;28;20090;-29
2023/09/06 10:15:24;;;;;;;2.97;1.20;;;;;;;;;;5091349;28;20545;-30
2023/09/06 10:17:58;;;;;;;4.57;1.50;;;;;;;;;;5091360;28;20115;-28
2023/09/06 10:20:27;;;;;;;5.70;1.60;;;;;;;;;;5091210;28;20386;-28
2023/09/06 10:22:56;;;;;;;5.38;1.35;;;;;;;;;;5095267;28;20093;-29
2023/09/06 10:25:26;;;;;;;5.55;1.23;;;;;;;;;;5095300;28;20028;-29
2023/09/06 10:27:55;;;;;;;5.72;1.30;;;;;;;;;;5094751;28;20591;-29
2023/09/06 10:31:07;;;;;;;10.80;1.38;;;;;;;;;;5094885;28;20074;-28
2023/09/06 10:33:42;;;;;;;3.67;1.27;;;;;;;;;;5094224;28;20043;-28
2023/09/06 10:36:10;;;;;;;2.63;1.10;;;;;;;;;;5095047;28;20089;-30
2023/09/06 10:39:10;;;;;;;4.15;1.30;;;;;;;;;;5094837;28;20032;-29
2023/09/06 10:41:37;;;;;;;6.97;1.40;;;;;;;;;;5066556;28;20067;-29
2023/09/06 10:44:06;;;;;;;17.00;1.70;;;;;;;;;;5089330;28;20024;-29
2023/09/06 10:46:37;;;;;;;8.38;1.20;;;;;;;;;;5092195;28;20043;-35
2023/09/06 10:49:23;;;;;;;7.80;1.88;;;;;;;;;;5075047;28;20118;-31
2023/09/06 10:51:57;;;;;;;3.65;1.10;;;;;;;;;;5090460;28;20516;-33
2023/09/06 10:54:44;;;;;;;8.57;1.35;;;;;;;;;;5089261;28;20024;-34
2023/09/06 10:57:14;;;;;;;18.23;2.90;;;;;;;;;;5092190;28;20020;-32
2023/09/06 10:59:47;;;;;;;7.32;1.42;;;;;;;;;;5093745;28;20024;-31
2023/09/06 11:02:20;;;;;;;8.13;1.40;;;;;;;;;;5092064;28;20448;-34
2023/09/06 11:04:48;;;;;;;6.72;1.63;;;;;;;;;;5090532;28;20117;-32
2023/09/06 11:07:15;;;;;;;6.57;1.40;;;;;;;;;;5093527;28;20536;-30
2023/09/06 11:09:43;;;;;;;9.18;1.55;;;;;;;;;;5090831;28;20032;-30
2023/09/06 11:12:17;;;;;;;5.45;1.60;;;;;;;;;;5091726;28;20038;-29
2023/09/06 11:14:49;;;;;;;4.78;1.35;;;;;;;;;;5090012;28;20028;-30
2023/09/06 11:17:23;;;;;;;5.70;1.30;;;;;;;;;;5093531;28;20024;-29
2023/09/06 11:19:50;;;;;;;7.25;1.42;;;;;;;;;;5091866;28;20032;-31
2023/09/06 11:22:17;;;;;;;6.40;1.13;;;;;;;;;;5091669;28;20039;-31
2023/09/06 11:24:44;;;;;;;11.73;1.55;;;;;;;;;;5091956;28;20032;-32
2023/09/06 11:27:17;;;;;;;6.38;1.60;;;;;;;;;;5093446;28;20064;-31
2023/09/06 11:29:45;;;;;;;2.72;1.20;;;;;;;;;;5090477;28;20051;-30
2023/09/06 11:32:12;;;;;;;5.68;1.30;;;;;;;;;;5092033;28;20024;-31
2023/09/06 11:34:45;;;;;;;9.23;1.38;;;;;;;;;;5090338;28;20111;-31
2023/09/06 11:37:15;;;;;;;5.18;1.27;;;;;;;;;;5093020;28;20035;-32
2023/09/06 11:39:45;;;;;;;6.38;1.27;;;;;;;;;;5074330;28;20024;-35
2023/09/06 11:42:19;;;;;;;4.43;1.20;;;;;;;;;;5093027;28;20020;-31
2023/09/06 11:44:53;;;;;;;4.50;1.27;;;;;;;;;;5087035;28;20036;-31
2023/09/06 11:47:24;;;;;;;6.45;1.65;;;;;;;;;;5090099;28;20052;-31
2023/09/06 11:49:51;;;;;;;5.20;1.42;;;;;;;;;;5092721;28;20485;-34
2023/09/06 11:52:19;;;;;;;6.03;1.00;;;;;;;;;;5090339;28;20500;-32
2023/09/06 11:54:52;;;;;;;9.93;1.80;;;;;;;;;;5087592;28;20032;-32
2023/09/06 11:57:25;;;;;;;7.78;1.40;;;;;;;;;;5065776;28;20215;-31
2023/09/06 11:59:58;;;;;;;6.00;1.25;;;;;;;;;;5091785;28;20504;-33
2023/09/06 12:02:30;;;;;;;9.73;1.30;;;;;;;;;;5091944;28;20039;-33
2023/09/06 12:05:03;;;;;;;6.72;1.25;;;;;;;;;;5089725;28;20036;-30
2023/09/06 12:07:33;;;;;;;7.25;1.60;;;;;;;;;;5089837;28;20067;-30
2023/09/06 12:10:06;;;;;;;6.65;1.33;;;;;;;;;;5085075;28;20036;-29
2023/09/06 12:12:45;;;;;;;7.63;1.33;;;;;;;;;;5092429;28;20039;-31
2023/09/06 12:15:19;;;;;;;9.65;1.80;;;;;;;;;;5091058;28;20077;-31
2023/09/06 12:17:50;;;;;;;6.05;1.63;;;;;;;;;;5092289;28;20032;-30
2023/09/06 12:20:20;;;;;;;6.60;1.40;;;;;;;;;;5086667;28;20482;-30
2023/09/06 12:22:48;;;;;;;8.25;1.52;;;;;;;;;;5092724;28;20060;-30
2023/09/06 12:25:15;;;;;;;9.38;1.77;;;;;;;;;;5091280;28;20028;-30
2023/09/06 12:27:43;;;;;;;8.30;1.55;;;;;;;;;;5091130;28;20040;-31
2023/09/06 12:30:10;;;;;;;6.00;1.45;;;;;;;;;;5092659;28;20078;-32
2023/09/06 12:32:39;;;;;;;9.20;1.67;;;;;;;;;;5092795;28;20077;-30
2023/09/06 12:35:07;;;;;;;6.15;1.48;;;;;;;;;;5091725;28;20402;-30
2023/09/06 12:37:37;;;;;;;7.20;1.20;;;;;;;;;;5092631;28;20027;-31
2023/09/06 12:40:13;;;;;;;6.90;1.55;;;;;;;;;;5092728;28;20024;-30
2023/09/06 12:42:44;;;;;;;5.78;1.55;;;;;;;;;;5092513;28;20028;-29
2023/09/06 12:45:16;;;;;;;8.45;1.60;;;;;;;;;;5092500;28;20024;-30
2023/09/06 12:47:43;;;;;;;5.00;1.35;;;;;;;;;;5092365;28;20043;-30
2023/09/06 12:50:10;;;;;;;8.90;1.52;;;;;;;;;;5092540;28;20115;-31
2023/09/06 12:52:37;;;;;;;4.88;1.35;;;;;;;;;;5092262;28;20420;-30
2023/09/06 12:55:04;;;;;;;6.68;1.67;;;;;;;;;;5092544;28;20107;-30
2023/09/06 12:57:32;;;;;;;7.75;1.58;;;;;;;;;;5092506;28;20397;-30
2023/09/06 12:59:59;;;;;;;6.68;1.38;;;;;;;;;;5092470;28;20477;-30
2023/09/06 13:02:27;;;;;;;9.57;1.50;;;;;;;;;;5092298;28;20028;-30
2023/09/06 13:04:54;;;;;;;6.88;1.30;;;;;;;;;;5092097;28;20028;-31
2023/09/06 13:07:21;;;;;;;7.57;1.70;;;;;;;;;;5092181;28;20032;-33
2023/09/06 13:09:48;;;;;;;7.70;1.88;;;;;;;;;;5092302;28;20056;-30
2023/09/06 13:12:15;;;;;;;7.10;1.60;;;;;;;;;;5092178;28;20024;-30
2023/09/06 13:14:42;;;;;;;9.73;1.50;;;;;;;;;;5092184;28;20036;-30
2023/09/06 13:17:09;;;;;;;12.57;1.52;;;;;;;;;;5092079;28;20024;-30
2023/09/06 13:19:36;;;;;;;10.40;1.90;;;;;;;;;;5092114;28;20024;-31
2023/09/06 13:22:03;;;;;;;6.80;1.65;;;;;;;;;;5091974;28;20093;-32
2023/09/06 13:24:33;;;;;;;6.95;1.42;;;;;;;;;;5092074;28;20031;-31
2023/09/06 13:27:00;;;;;;;9.95;1.77;;;;;;;;;;5091779;28;20046;-34
2023/09/06 13:29:27;;;;;;;11.35;1.70;;;;;;;;;;5091904;28;20040;-32
2023/09/06 13:31:54;;;;;;;9.15;1.58;;;;;;;;;;5091973;28;20036;-30
2023/09/06 13:34:22;;;;;;;13.45;1.60;;;;;;;;;;5091887;28;20107;-30
2023/09/06 13:36:49;;;;;;;6.85;2.10;;;;;;;;;;5091860;28;20028;-30
2023/09/06 13:39:17;;;;;;;7.32;1.40;;;;;;;;;;5091873;28;20032;-30
2023/09/06 13:41:44;;;;;;;8.60;1.92;;;;;;;;;;5091847;28;20394;-33
2023/09/06 13:44:11;;;;;;;5.25;1.52;;;;;;;;;;5091843;28;20035;-32
2023/09/06 13:46:41;;;;;;;11.93;1.80;;;;;;;;;;5091515;28;20051;-31
2023/09/06 13:49:09;;;;;;;5.95;1.55;;;;;;;;;;5091761;28;20400;-30
2023/09/06 13:51:36;;;;;;;10.32;1.60;;;;;;;;;;5091699;28;20078;-31
2023/09/06 13:54:06;;;;;;;6.18;1.50;;;;;;;;;;5091505;28;20738;-30
2023/09/06 13:56:34;;;;;;;10.80;1.98;;;;;;;;;;5093696;28;20028;-30
2023/09/06 13:59:01;;;;;;;7.95;1.40;;;;;;;;;;5096016;28;20032;-31
2023/09/06 14:01:28;;;;;;;8.52;1.65;;;;;;;;;;5095736;28;20823;-31
2023/09/06 14:03:55;;;;;;;7.85;1.67;;;;;;;;;;5095698;28;20034;-30
2023/09/06 14:06:23;;;;;;;10.02;1.92;;;;;;;;;;5095666;28;20115;-30
2023/09/06 14:08:50;;;;;;;6.72;1.65;;;;;;;;;;5095736;28;20107;-30
2023/09/06 14:11:18;;;;;;;5.85;1.65;;;;;;;;;;5095567;28;20474;-30
2023/09/06 14:13:45;;;;;;;7.65;1.77;;;;;;;;;;5095663;28;20032;-31
2023/09/06 14:16:12;;;;;;;13.13;1.85;;;;;;;;;;5095322;28;20081;-30
2023/09/06 14:18:39;;;;;;;4.10;1.70;;;;;;;;;;5095514;28;20031;-30
2023/09/06 14:21:06;;;;;;;5.72;1.65;;;;;;;;;;5095437;28;20385;-30
2023/09/06 14:23:33;;;;;;;5.13;1.40;;;;;;;;;;5095387;28;20021;-30
2023/09/06 14:26:00;;;;;;;6.47;1.67;;;;;;;;;;5095321;28;20027;-33
2023/09/06 14:28:27;;;;;;;12.07;1.60;;;;;;;;;;5095366;28;20031;-30
2023/09/06 14:30:53;;;;;;;9.45;1.63;;;;;;;;;;5095177;28;20082;-30
2023/09/06 14:33:21;;;;;;;8.05;1.77;;;;;;;;;;5095303;28;20028;-31
2023/09/06 14:35:47;;;;;;;7.43;1.60;;;;;;;;;;5095153;28;20024;-29
2023/09/06 14:38:16;;;;;;;23.13;2.00;;;;;;;;;;5095117;28;20039;-29
2023/09/06 14:40:44;;;;;;;10.90;1.85;;;;;;;;;;5094864;28;20019;-31
2023/09/06 14:43:11;;;;;;;7.00;1.80;;;;;;;;;;5095061;28;20028;-31
2023/09/06 14:45:39;;;;;;;11.30;2.00;;;;;;;;;;5095069;28;20048;-29